Time;durP1;ratioP1;P1;durP2;ratioP2;P2;SDS_P1;SDS_P2;PMS_P1;PMS_P2;Temp;Humidity;BMP_temperature;BMP_pressure;BME280_temperature;BME280_humidity;BME280_pressure;Samples;Min_cycle;Max_cycle;Signal;HPM_P1;HPM_P2
2022/10/31 05:32:10;;;;;;;;;31.00;29.00;;;;;-147.14;100.00;58812.66;5168869;23;46288;-62
2022/10/31 05:34:35;;;;;;;;;26.67;25.00;;;;;-147.14;100.00;58812.66;5001643;28;70472;-60
2022/10/31 05:37:01;;;;;;;;;29.33;27.33;;;;;-147.14;100.00;58812.66;5001620;28;70120;-60
2022/10/31 05:39:26;;;;;;;;;28.33;25.33;;;;;-147.14;100.00;58812.66;5001796;28;65615;-60
2022/10/31 05:41:51;;;;;;;;;26.00;25.33;;;;;-147.14;100.00;58812.66;5001481;28;70823;-60
2022/10/31 05:44:17;;;;;;;;;27.67;24.00;;;;;-147.14;100.00;58812.66;5001494;28;70190;-60
2022/10/31 05:46:42;;;;;;;;;27.00;26.00;;;;;-147.14;100.00;58812.66;5001356;28;65739;-60
2022/10/31 05:49:07;;;;;;;;;30.67;29.00;;;;;-147.14;100.00;58812.66;5001874;28;62528;-60
2022/10/31 05:51:32;;;;;;;;;32.33;28.00;;;;;-147.14;100.00;58812.66;5003581;28;74599;-60
2022/10/31 05:53:58;;;;;;;;;28.33;26.67;;;;;-147.14;100.00;58812.66;5021154;28;71759;-60
2022/10/31 05:56:23;;;;;;;;;24.00;22.33;;;;;-147.14;100.00;58812.66;5021251;28;66134;-60
2022/10/31 05:58:48;;;;;;;;;27.33;26.00;;;;;-147.14;100.00;58812.66;5021041;28;66592;-60
2022/10/31 06:01:14;;;;;;;;;23.33;22.33;;;;;-147.14;100.00;58812.66;5020974;28;66731;-60
2022/10/31 06:03:39;;;;;;;;;24.67;23.33;;;;;-147.14;100.00;58812.66;5021673;28;47595;-60
2022/10/31 06:06:04;;;;;;;;;32.00;27.33;;;;;-147.14;100.00;58812.66;5019457;28;47833;-60
2022/10/31 06:08:30;;;;;;;;;33.33;27.33;;;;;-147.14;100.00;58812.66;5002008;28;45527;-60
2022/10/31 06:10:55;;;;;;;;;21.33;20.67;;;;;-147.14;100.00;58812.66;5000955;28;71725;-60
2022/10/31 06:13:21;;;;;;;;;25.00;23.00;;;;;-147.14;100.00;58812.66;5001800;28;51379;-60
2022/10/31 06:15:46;;;;;;;;;16.67;10.67;;;;;-147.14;100.00;58812.66;5006187;28;61036;-60
2022/10/31 06:18:11;;;;;;;;;20.33;20.00;;;;;-147.14;100.00;58812.66;5001076;28;62773;-60
2022/10/31 06:20:36;;;;;;;;;30.00;24.67;;;;;-147.14;100.00;58812.66;5000364;28;46043;-60
2022/10/31 06:23:02;;;;;;;;;25.67;22.33;;;;;-147.14;100.00;58812.66;5001111;28;68145;-60
2022/10/31 06:25:28;;;;;;;;;28.67;26.33;;;;;-147.14;100.00;58812.66;5001989;28;45218;-60
2022/10/31 06:27:54;;;;;;;;;20.33;19.33;;;;;-147.14;100.00;58812.66;5001792;28;45377;-60
2022/10/31 06:30:19;;;;;;;;;25.33;21.67;;;;;-147.14;100.00;58812.66;5003083;28;46086;-60
2022/10/31 06:32:45;;;;;;;;;27.67;25.00;;;;;-147.14;100.00;58812.66;5000149;28;45398;-60
2022/10/31 06:35:10;;;;;;;;;19.33;18.00;;;;;-147.14;100.00;58812.66;5001825;28;45846;-60
2022/10/31 06:37:35;;;;;;;;;29.00;22.33;;;;;-147.14;100.00;58812.66;4999688;28;69862;-60
2022/10/31 06:40:01;;;;;;;;;25.67;21.00;;;;;-147.14;100.00;58812.66;5001391;28;45431;-62
2022/10/31 06:42:26;;;;;;;;;32.00;24.67;;;;;-147.14;100.00;58812.66;5000818;28;67328;-62
2022/10/31 06:44:51;;;;;;;;;35.00;25.67;;;;;-147.14;100.00;58812.66;5000514;28;69401;-62
2022/10/31 06:47:16;;;;;;;;;19.67;17.67;;;;;-147.14;100.00;58812.66;5000634;28;61379;-60
2022/10/31 06:49:42;;;;;;;;;26.67;22.00;;;;;-147.14;100.00;58812.66;5000267;28;73802;-60
2022/10/31 06:52:07;;;;;;;;;22.33;19.33;;;;;-147.14;100.00;58812.66;5008060;28;69232;-60
2022/10/31 06:54:32;;;;;;;;;24.67;20.33;;;;;-147.14;100.00;58812.66;5020301;28;67895;-61
2022/10/31 06:56:58;;;;;;;;;22.67;20.67;;;;;-147.14;100.00;58812.66;5020206;28;69007;-61
2022/10/31 06:59:24;;;;;;;;;23.00;22.00;;;;;-147.14;100.00;58812.66;5020219;28;70231;-62
2022/10/31 07:01:49;;;;;;;;;23.67;22.33;;;;;-147.14;100.00;58812.66;5020778;28;45346;-62
2022/10/31 07:04:15;;;;;;;;;26.33;22.67;;;;;-147.14;100.00;58812.66;5021002;28;45397;-60
2022/10/31 07:06:40;;;;;;;;;27.00;24.67;;;;;-147.14;100.00;58812.66;5013170;28;62322;-62
2022/10/31 07:09:05;;;;;;;;;21.67;18.33;;;;;-147.14;100.00;58812.66;5000310;28;71842;-62
2022/10/31 07:11:31;;;;;;;;;28.00;25.67;;;;;-147.14;100.00;58812.66;5000413;28;66482;-62
2022/10/31 07:13:56;;;;;;;;;24.00;23.00;;;;;-147.14;100.00;58812.66;5001242;28;46016;-62
2022/10/31 07:16:21;;;;;;;;;17.00;16.67;;;;;-147.14;100.00;58812.66;5005647;28;45543;-60
2022/10/31 07:18:47;;;;;;;;;25.00;19.33;;;;;-147.14;100.00;58812.66;4999527;28;45631;-62
2022/10/31 07:21:12;;;;;;;;;23.33;21.00;;;;;-147.14;100.00;58812.66;4999991;28;69907;-62
2022/10/31 07:23:37;;;;;;;;;24.67;21.00;;;;;-147.14;100.00;58812.66;5000004;28;63624;-62
2022/10/31 07:26:03;;;;;;;;;22.00;18.00;;;;;-147.14;100.00;58812.66;5000005;28;64574;-62
2022/10/31 07:28:28;;;;;;;;;25.67;20.00;;;;;-147.14;100.00;58812.66;5001510;28;56028;-62
2022/10/31 07:30:56;;;;;;;;;20.67;19.67;;;;;-147.14;100.00;58812.66;5001038;28;45814;-60
2022/10/31 07:33:21;;;;;;;;;23.00;20.67;;;;;-147.14;100.00;58812.66;5000806;28;45381;-61
2022/10/31 07:35:47;;;;;;;;;21.67;19.00;;;;;-147.14;100.00;58812.66;5000258;28;45376;-60
2022/10/31 07:38:13;;;;;;;;;20.00;17.33;;;;;-147.14;100.00;58812.66;5000479;28;46951;-61
2022/10/31 07:40:40;;;;;;;;;18.00;17.67;;;;;-147.14;100.00;58812.66;5000372;28;45325;-61
2022/10/31 07:43:05;;;;;;;;;20.33;17.00;;;;;-147.14;100.00;58812.66;5000604;28;45344;-61
2022/10/31 07:45:31;;;;;;;;;21.33;19.00;;;;;-147.14;100.00;58812.66;5000377;28;45512;-60
2022/10/31 07:47:56;;;;;;;;;22.33;18.67;;;;;-147.14;100.00;58812.66;4999152;28;74706;-60
2022/10/31 07:50:27;;;;;;;;;20.00;18.67;;;;;-147.14;100.00;58812.66;4999663;28;54842;-60
2022/10/31 07:53:06;;;;;;;;;20.00;16.67;;;;;-147.14;100.00;58812.66;5013592;28;45397;-61
2022/10/31 07:55:32;;;;;;;;;20.33;19.33;;;;;-147.14;100.00;58812.66;5020337;28;45408;-61
2022/10/31 07:57:59;;;;;;;;;26.33;22.67;;;;;-147.14;100.00;58812.66;5019983;28;46119;-61
2022/10/31 08:00:25;;;;;;;;;21.00;17.67;;;;;-147.14;100.00;58812.66;5020042;28;45289;-60
2022/10/31 08:03:05;;;;;;;;;19.33;16.67;;;;;-147.14;100.00;58812.66;5019855;28;45384;-60
2022/10/31 08:05:32;;;;;;;;;21.33;19.67;;;;;-147.14;100.00;58812.66;5019885;28;45671;-60
2022/10/31 08:07:58;;;;;;;;;24.00;20.00;;;;;-147.14;100.00;58812.66;5002170;28;46263;-60
2022/10/31 08:10:24;;;;;;;;;19.00;16.33;;;;;-147.14;100.00;58812.66;5000199;28;45487;-60
2022/10/31 08:13:01;;;;;;;;;26.00;19.33;;;;;-147.14;100.00;58812.66;5000202;28;45465;-60
2022/10/31 08:15:27;;;;;;;;;23.00;17.33;;;;;-147.14;100.00;58812.66;5004229;28;45297;-60
2022/10/31 08:17:52;;;;;;;;;20.00;18.00;;;;;-147.14;100.00;58812.66;5000238;28;47103;-60
2022/10/31 08:20:18;;;;;;;;;22.33;19.00;;;;;-147.14;100.00;58812.66;4999541;28;58777;-60
2022/10/31 08:22:43;;;;;;;;;28.33;21.67;;;;;-147.14;100.00;58812.66;5000163;28;45357;-61
2022/10/31 08:25:08;;;;;;;;;24.33;21.33;;;;;-147.14;100.00;58812.66;4998799;28;45497;-61
2022/10/31 08:27:34;;;;;;;;;20.67;20.00;;;;;-147.14;100.00;58812.66;5018136;28;46322;-61
2022/10/31 08:29:59;;;;;;;;;19.00;16.67;;;;;-147.14;100.00;58812.66;5005147;28;67940;-61
2022/10/31 08:32:25;;;;;;;;;18.67;17.00;;;;;-147.14;100.00;58812.66;4999630;28;45446;-61
2022/10/31 08:34:50;;;;;;;;;57.00;43.00;;;;;-147.14;100.00;58812.66;5000032;28;45452;-61
2022/10/31 08:37:19;;;;;;;;;25.00;19.33;;;;;-147.14;100.00;58812.66;4997581;28;70279;-62
2022/10/31 08:39:46;;;;;;;;;21.33;18.67;;;;;-147.14;100.00;58812.66;4998622;28;45430;-61
2022/10/31 08:42:11;;;;;;;;;27.67;21.00;;;;;-147.14;100.00;58812.66;4999996;28;45357;-62
2022/10/31 08:44:36;;;;;;;;;25.67;20.33;;;;;-147.14;100.00;58812.66;4998943;28;67400;-61
2022/10/31 08:47:02;;;;;;;;;23.33;21.00;;;;;-147.14;100.00;58812.66;4998444;28;72813;-61
2022/10/31 08:49:27;;;;;;;;;29.00;20.33;;;;;-147.14;100.00;58812.66;4998654;28;71216;-61
2022/10/31 08:51:52;;;;;;;;;17.67;16.67;;;;;-147.14;100.00;58812.66;5003980;28;45824;-61
2022/10/31 08:54:18;;;;;;;;;20.00;17.00;;;;;-147.14;100.00;58812.66;5018611;28;68111;-61
2022/10/31 08:56:43;;;;;;;;;22.00;19.33;;;;;-147.14;100.00;58812.66;5018538;28;71321;-62
2022/10/31 08:59:08;;;;;;;;;21.00;17.67;;;;;-147.14;100.00;58812.66;5018553;28;67979;-61
2022/10/31 09:01:34;;;;;;;;;18.33;18.00;;;;;-147.14;100.00;58812.66;5020807;28;45699;-62
2022/10/31 09:03:59;;;;;;;;;22.00;19.00;;;;;-147.14;100.00;58812.66;5022328;28;65165;-61
2022/10/31 09:06:24;;;;;;;;;21.00;18.33;;;;;-147.14;100.00;58812.66;5016820;28;70368;-61
2022/10/31 09:08:50;;;;;;;;;22.00;20.67;;;;;-147.14;100.00;58812.66;5002229;28;69017;-61
2022/10/31 09:11:15;;;;;;;;;21.33;17.67;;;;;-147.14;100.00;58812.66;5002627;28;54996;-61
2022/10/31 09:13:40;;;;;;;;;22.33;22.00;;;;;-147.14;100.00;58812.66;5002274;28;62792;-61
2022/10/31 09:16:06;;;;;;;;;19.33;18.00;;;;;-147.14;100.00;58812.66;5007508;28;46136;-61
2022/10/31 09:18:31;;;;;;;;;21.00;19.67;;;;;-147.14;100.00;58812.66;5002775;28;45445;-61
2022/10/31 09:20:58;;;;;;;;;26.67;21.33;;;;;-147.14;100.00;58812.66;5002933;28;45357;-61
2022/10/31 09:23:23;;;;;;;;;29.67;19.33;;;;;-147.14;100.00;58812.66;5002698;28;45314;-62
2022/10/31 09:25:50;;;;;;;;;18.33;18.33;;;;;-147.14;100.00;58812.66;5002614;28;45919;-62
2022/10/31 09:28:19;;;;;;;;;23.50;21.50;;;;;-147.14;100.00;58812.66;5002774;28;45391;-61
2022/10/31 09:30:47;;;;;;;;;23.33;22.33;;;;;-147.14;100.00;58812.66;5002245;28;45439;-61
2022/10/31 09:33:13;;;;;;;;;20.00;19.00;;;;;-147.14;100.00;58812.66;5002736;28;45605;-61
2022/10/31 09:35:39;;;;;;;;;21.33;19.33;;;;;-147.14;100.00;58812.66;5002421;28;46284;-61
2022/10/31 09:38:06;;;;;;;;;21.33;20.00;;;;;-147.14;100.00;58812.66;5002219;28;45190;-61
2022/10/31 09:40:43;;;;;;;;;23.33;19.00;;;;;-147.14;100.00;58812.66;5002398;28;45652;-61
2022/10/31 09:43:21;;;;;;;;;21.67;21.00;;;;;-147.14;100.00;58812.66;5002413;28;45329;-61
2022/10/31 09:45:55;;;;;;;;;24.00;21.67;;;;;-147.14;100.00;58812.66;5001826;28;46282;-61
2022/10/31 09:48:39;;;;;;;;;23.00;20.33;;;;;-147.14;100.00;58812.66;5002168;28;45315;-61
2022/10/31 09:51:08;;;;;;;;;22.33;22.00;;;;;-147.14;100.00;58812.66;5002227;28;45362;-61
2022/10/31 09:53:43;;;;;;;;;23.33;20.33;;;;;-147.14;100.00;58812.66;5021147;28;45388;-61
2022/10/31 09:56:16;;;;;;;;;20.00;17.33;;;;;-147.14;100.00;58812.66;5020577;28;45369;-61
2022/10/31 09:58:44;;;;;;;;;19.33;18.33;;;;;-147.14;100.00;58812.66;5020818;28;45408;-61
2022/10/31 10:01:21;;;;;;;;;20.67;19.00;;;;;-147.14;100.00;58812.66;5020608;28;45349;-61
2022/10/31 10:03:50;;;;;;;;;22.67;21.00;;;;;-147.14;100.00;58812.66;5020897;28;45385;-61
2022/10/31 10:06:23;;;;;;;;;24.00;18.00;;;;;-147.14;100.00;58812.66;5020475;28;46407;-61
2022/10/31 10:08:48;;;;;;;;;20.00;18.67;;;;;-147.14;100.00;58812.66;5009549;28;45476;-61
2022/10/31 10:11:59;;;;;;;;;21.67;18.33;;;;;-147.14;100.00;58812.66;5001924;28;45415;-62
2022/10/31 10:14:42;;;;;;;;;22.00;20.33;;;;;-147.14;100.00;58812.66;4999609;28;45250;-62
2022/10/31 10:17:44;;;;;;;;;25.00;22.25;;;;;-147.14;100.00;58812.66;5021320;28;45418;-60
2022/10/31 10:20:41;;;;;;;;;24.33;19.67;;;;;-147.14;100.00;58812.66;5001665;28;45420;-60
2022/10/31 10:23:44;;;;;;;;;21.33;19.00;;;;;-147.14;100.00;58812.66;5010596;28;45315;-61
2022/10/31 10:26:15;;;;;;;;;20.00;20.00;;;;;-147.14;100.00;58812.66;5021310;28;45399;-60
2022/10/31 10:28:43;;;;;;;;;19.75;18.00;;;;;-147.14;100.00;58812.66;5016876;28;47126;-61
2022/10/31 10:31:17;;;;;;;;;18.00;16.00;;;;;-147.14;100.00;58812.66;5016368;28;45377;-61
2022/10/31 10:34:02;;;;;;;;;20.67;16.00;;;;;-147.14;100.00;58812.66;5016818;28;45471;-61
2022/10/31 10:36:38;;;;;;;;;16.67;16.33;;;;;-147.14;100.00;58812.66;5016782;28;45376;-61
2022/10/31 10:39:27;;;;;;;;;23.00;19.33;;;;;-147.14;100.00;58812.66;5007998;28;46102;-61
2022/10/31 10:47:40;;;;;;;;;20.67;19.00;;;;;-147.14;100.00;58812.66;5019961;28;45379;-61
2022/10/31 10:50:13;;;;;;;;;21.33;20.00;;;;;-147.14;100.00;58812.66;5018411;28;46333;-61
2022/10/31 10:53:07;;;;;;;;;22.67;19.00;;;;;-147.14;100.00;58812.66;5001140;28;45496;-61
2022/10/31 10:55:41;;;;;;;;;17.67;17.33;;;;;-147.14;100.00;58812.66;5001365;28;45423;-61
2022/10/31 10:58:07;;;;;;;;;21.00;15.00;;;;;-147.14;100.00;58812.66;5001207;28;45515;-61
2022/10/31 11:00:47;;;;;;;;;17.67;16.67;;;;;-147.14;100.00;58812.66;4999428;28;46288;-61
2022/10/31 11:03:13;;;;;;;;;17.67;13.00;;;;;-147.14;100.00;58812.66;4999789;28;45239;-61
2022/10/31 11:05:44;;;;;;;;;17.00;14.00;;;;;-147.14;100.00;58812.66;5001291;28;45369;-61
2022/10/31 11:08:10;;;;;;;;;20.00;18.33;;;;;-147.14;100.00;58812.66;5019046;28;45506;-61
2022/10/31 11:10:36;;;;;;;;;17.67;16.00;;;;;-147.14;100.00;58812.66;5020871;28;46352;-61
2022/10/31 11:13:23;;;;;;;;;15.33;15.33;;;;;-147.14;100.00;58812.66;5019398;28;45750;-61
2022/10/31 11:15:57;;;;;;;;;15.67;15.67;;;;;-147.14;100.00;58812.66;5013186;28;45404;-61
2022/10/31 11:18:25;;;;;;;;;20.33;17.67;;;;;-147.14;100.00;58812.66;5016367;28;45420;-60
2022/10/31 11:20:56;;;;;;;;;16.75;14.25;;;;;-147.14;100.00;58812.66;5000502;28;45747;-60
2022/10/31 11:23:24;;;;;;;;;23.00;16.33;;;;;-147.14;100.00;58812.66;5000249;28;45351;-60
2022/10/31 11:25:55;;;;;;;;;17.00;13.67;;;;;-147.14;100.00;58812.66;5000837;28;45340;-61
2022/10/31 11:28:20;;;;;;;;;17.67;16.67;;;;;-147.14;100.00;58812.66;5000878;28;45412;-60
2022/10/31 11:30:49;;;;;;;;;17.50;15.25;;;;;-147.14;100.00;58812.66;5001501;28;46068;-61
2022/10/31 11:33:18;;;;;;;;;16.50;14.75;;;;;-147.14;100.00;58812.66;4999523;28;45653;-60
2022/10/31 11:35:44;;;;;;;;;15.50;15.00;;;;;-147.14;100.00;58812.66;5016083;28;45448;-60
2022/10/31 11:38:17;;;;;;;;;15.00;15.00;;;;;-147.14;100.00;58812.66;4999759;28;67921;-61
2022/10/31 11:40:53;;;;;;;;;17.00;15.00;;;;;-147.14;100.00;58812.66;5005890;28;45503;-60
2022/10/31 11:43:18;;;;;;;;;17.25;15.00;;;;;-147.14;100.00;58812.66;5020255;28;45440;-61
2022/10/31 11:45:43;;;;;;;;;15.00;14.00;;;;;-147.14;100.00;58812.66;5018316;28;60023;-60
2022/10/31 11:48:20;;;;;;;;;19.75;13.75;;;;;-147.14;100.00;58812.66;5019491;28;67648;-60
2022/10/31 11:50:56;;;;;;;;;12.75;12.75;;;;;-147.14;100.00;58812.66;5013432;28;46266;-60
2022/10/31 11:53:28;;;;;;;;;16.00;13.75;;;;;-147.14;100.00;58812.66;5000373;28;45507;-60
2022/10/31 11:56:20;;;;;;;;;14.00;13.50;;;;;-147.14;100.00;58812.66;5000386;28;45431;-61
2022/10/31 11:59:02;;;;;;;;;16.00;14.25;;;;;-147.14;100.00;58812.66;5000088;28;45356;-61
2022/10/31 12:01:30;;;;;;;;;11.00;10.50;;;;;-147.14;100.00;58812.66;4999901;28;45571;-61
2022/10/31 12:04:05;;;;;;;;;10.75;10.75;;;;;-147.14;100.00;58812.66;5000272;28;45604;-61
2022/10/31 12:06:36;;;;;;;;;19.50;14.50;;;;;-147.14;100.00;58812.66;5004697;28;45384;-61
2022/10/31 12:09:04;;;;;;;;;13.25;11.50;;;;;-147.14;100.00;58812.66;5020111;28;45383;-61
2022/10/31 12:11:29;;;;;;;;;12.50;12.50;;;;;-147.14;100.00;58812.66;5018532;28;45682;-61
2022/10/31 12:14:13;;;;;;;;;14.75;13.00;;;;;-147.14;100.00;58812.66;5019916;28;45347;-61
2022/10/31 12:17:02;;;;;;;;;14.75;12.75;;;;;-147.14;100.00;58812.66;5005731;28;45221;-60
2022/10/31 12:19:59;;;;;;;;;14.00;12.50;;;;;-147.14;100.00;58812.66;5000046;28;45470;-60
2022/10/31 12:22:30;;;;;;;;;14.75;11.50;;;;;-147.14;100.00;58812.66;4949610;28;45429;-60
2022/10/31 12:25:14;;;;;;;;;9.75;9.25;;;;;-147.14;100.00;58812.66;5010565;28;45408;-61
2022/10/31 12:27:58;;;;;;;;;14.50;13.00;;;;;-147.14;100.00;58812.66;5019750;28;45273;-60
2022/10/31 12:30:40;;;;;;;;;11.75;11.00;;;;;-147.14;100.00;58812.66;5002708;28;45312;-61
2022/10/31 12:33:24;;;;;;;;;12.25;10.75;;;;;-147.14;100.00;58812.66;5015123;28;45426;-61
2022/10/31 12:36:08;;;;;;;;;13.75;11.50;;;;;-147.14;100.00;58812.66;4999178;28;45330;-61
2022/10/31 12:38:48;;;;;;;;;15.25;11.25;;;;;-147.14;100.00;58812.66;5003488;28;45449;-61
2022/10/31 12:41:24;;;;;;;;;14.50;11.75;;;;;-147.14;100.00;58812.66;5003580;28;45373;-61
2022/10/31 12:43:57;;;;;;;;;6.67;6.67;;;;;-147.14;100.00;58812.66;5003131;28;45336;-61
2022/10/31 12:46:38;;;;;;;;;13.75;12.25;;;;;-147.14;100.00;58812.66;5018263;28;45411;-61
2022/10/31 12:49:38;;;;;;;;;12.50;8.75;;;;;-147.14;100.00;58812.66;5003271;28;45344;-61
2022/10/31 12:52:26;;;;;;;;;11.00;10.00;;;;;-147.14;100.00;58812.66;5010057;28;45301;-61
2022/10/31 12:54:52;;;;;;;;;11.50;10.00;;;;;-147.14;100.00;58812.66;5022727;28;45379;-61
2022/10/31 12:57:36;;;;;;;;;10.75;10.00;;;;;-147.14;100.00;58812.66;5022897;28;45546;-61
2022/10/31 13:00:05;;;;;;;;;14.50;10.75;;;;;-147.14;100.00;58812.66;5022879;28;45523;-61
2022/10/31 13:02:40;;;;;;;;;12.50;9.00;;;;;-147.14;100.00;58812.66;5022783;28;45336;-61
2022/10/31 13:05:10;;;;;;;;;11.00;11.00;;;;;-147.14;100.00;58812.66;5021671;28;46497;-61
2022/10/31 13:07:44;;;;;;;;;17.33;13.33;;;;;-147.14;100.00;58812.66;5021434;28;45380;-61
2022/10/31 13:10:12;;;;;;;;;15.25;9.50;;;;;-147.14;100.00;58812.66;5022975;28;45380;-60
2022/10/31 13:12:39;;;;;;;;;12.50;11.50;;;;;-147.14;100.00;58812.66;5022790;28;45374;-61
2022/10/31 13:15:14;;;;;;;;;12.67;10.33;;;;;-147.14;100.00;58812.66;5020204;28;46367;-61
2022/10/31 13:17:44;;;;;;;;;11.00;10.00;;;;;-147.14;100.00;58812.66;5017468;28;45467;-61
2022/10/31 13:20:31;;;;;;;;;12.00;11.00;;;;;-147.14;100.00;58812.66;5001430;28;45493;-61
2022/10/31 13:23:20;;;;;;;;;12.25;10.25;;;;;-147.14;100.00;58812.66;5001477;28;45335;-61
2022/10/31 13:25:50;;;;;;;;;12.00;9.67;;;;;-147.14;100.00;58812.66;5001136;28;45408;-61
2022/10/31 13:28:45;;;;;;;;;11.00;10.33;;;;;-147.14;100.00;58812.66;5012773;28;45337;-61
2022/10/31 13:31:10;;;;;;;;;11.67;9.00;;;;;-147.14;100.00;58812.66;5017848;28;45242;-61
2022/10/31 13:33:46;;;;;;;;;14.33;13.67;;;;;-147.14;100.00;58812.66;5001585;28;65299;-60
2022/10/31 13:36:21;;;;;;;;;10.33;9.67;;;;;-147.14;100.00;58812.66;5002495;28;45539;-60
2022/10/31 13:38:56;;;;;;;;;14.67;12.67;;;;;-147.14;100.00;58812.66;5002199;28;45338;-60
2022/10/31 13:41:37;;;;;;;;;13.00;10.50;;;;;-147.14;100.00;58812.66;5001258;28;45359;-60
2022/10/31 13:44:02;;;;;;;;;11.33;10.33;;;;;-147.14;100.00;58812.66;5002429;28;45860;-60
2022/10/31 13:46:30;;;;;;;;;12.33;12.33;;;;;-147.14;100.00;58812.66;5000139;28;47021;-62
2022/10/31 13:48:56;;;;;;;;;12.33;9.00;;;;;-147.14;100.00;58812.66;5001993;28;45356;-62
2022/10/31 13:51:28;;;;;;;;;12.50;11.50;;;;;-147.14;100.00;58812.66;4984813;28;60973;-62
2022/10/31 13:53:59;;;;;;;;;14.33;13.33;;;;;-147.14;100.00;58812.66;5022227;28;45406;-61
2022/10/31 13:56:27;;;;;;;;;13.33;11.33;;;;;-147.14;100.00;58812.66;5021839;28;46110;-60
2022/10/31 13:59:19;;;;;;;;;12.33;10.33;;;;;-147.14;100.00;58812.66;5020963;28;45357;-60
2022/10/31 14:01:50;;;;;;;;;13.33;11.67;;;;;-147.14;100.00;58812.66;5016281;28;45454;-60
2022/10/31 14:04:24;;;;;;;;;18.00;12.67;;;;;-147.14;100.00;58812.66;5021918;28;45298;-62
2022/10/31 14:07:11;;;;;;;;;14.00;13.67;;;;;-147.14;100.00;58812.66;5013174;28;46091;-60
2022/10/31 14:09:48;;;;;;;;;14.00;12.00;;;;;-147.14;100.00;58812.66;5001761;28;45380;-60
2022/10/31 14:12:26;;;;;;;;;15.00;13.33;;;;;-147.14;100.00;58812.66;5000870;28;45480;-61
2022/10/31 14:14:56;;;;;;;;;14.33;9.33;;;;;-147.14;100.00;58812.66;5005039;28;45486;-60
2022/10/31 14:17:25;;;;;;;;;15.67;13.00;;;;;-147.14;100.00;58812.66;5013414;28;45496;-62
2022/10/31 14:20:01;;;;;;;;;16.33;14.33;;;;;-147.14;100.00;58812.66;5000322;28;45461;-62
2022/10/31 14:22:31;;;;;;;;;16.00;12.00;;;;;-147.14;100.00;58812.66;5001669;28;45411;-60
2022/10/31 14:24:56;;;;;;;;;13.00;13.00;;;;;-147.14;100.00;58812.66;5001538;28;45290;-60
2022/10/31 14:27:27;;;;;;;;;16.33;12.67;;;;;-147.14;100.00;58812.66;5015641;28;68800;-60
2022/10/31 14:29:53;;;;;;;;;14.00;13.00;;;;;-147.14;100.00;58812.66;5003370;28;45263;-62
2022/10/31 14:32:24;;;;;;;;;12.67;12.00;;;;;-147.14;100.00;58812.66;5000260;28;68185;-60
2022/10/31 14:34:49;;;;;;;;;18.33;16.33;;;;;-147.14;100.00;58812.66;5016743;28;45369;-60
2022/10/31 14:37:23;;;;;;;;;12.00;12.00;;;;;-147.14;100.00;58812.66;5001246;28;47317;-62
2022/10/31 14:39:51;;;;;;;;;13.33;13.33;;;;;-147.14;100.00;58812.66;5001324;28;45412;-62
2022/10/31 14:42:19;;;;;;;;;11.67;11.67;;;;;-147.14;100.00;58812.66;5001545;28;45482;-62
2022/10/31 14:45:05;;;;;;;;;14.00;11.67;;;;;-147.14;100.00;58812.66;5001564;28;45409;-62
2022/10/31 14:47:39;;;;;;;;;18.67;14.33;;;;;-147.14;100.00;58812.66;5001132;28;45388;-61
2022/10/31 14:50:56;;;;;;;;;14.00;12.67;;;;;-147.14;100.00;58812.66;4999675;28;45544;-62
2022/10/31 14:53:29;;;;;;;;;16.00;16.00;;;;;-147.14;100.00;58812.66;4982826;28;45330;-62
2022/10/31 14:55:56;;;;;;;;;13.00;12.33;;;;;-147.14;100.00;58812.66;5021331;28;45434;-62
2022/10/31 14:58:28;;;;;;;;;16.00;14.00;;;;;-147.14;100.00;58812.66;5018660;28;45353;-62
2022/10/31 15:00:57;;;;;;;;;14.00;13.00;;;;;-147.14;100.00;58812.66;5019547;28;45487;-62
2022/10/31 15:03:34;;;;;;;;;16.00;15.00;;;;;-147.14;100.00;58812.66;5018900;28;65342;-62
2022/10/31 15:06:03;;;;;;;;;14.33;12.00;;;;;-147.14;100.00;58812.66;5019185;28;45571;-62
2022/10/31 15:08:31;;;;;;;;;14.00;13.33;;;;;-147.14;100.00;58812.66;5000778;28;45309;-62
2022/10/31 15:10:56;;;;;;;;;11.00;11.00;;;;;-147.14;100.00;58812.66;5000768;28;45194;-62
2022/10/31 15:13:22;;;;;;;;;15.00;13.33;;;;;-147.14;100.00;58812.66;4998818;28;66855;-62
2022/10/31 15:15:48;;;;;;;;;12.67;11.67;;;;;-147.14;100.00;58812.66;5005890;28;45365;-62
2022/10/31 15:18:21;;;;;;;;;10.33;8.33;;;;;-147.14;100.00;58812.66;5000589;28;45483;-62
2022/10/31 15:20:46;;;;;;;;;14.00;12.00;;;;;-147.14;100.00;58812.66;5000733;28;45379;-62
2022/10/31 15:23:16;;;;;;;;;16.00;14.33;;;;;-147.14;100.00;58812.66;5000914;28;45369;-62
2022/10/31 15:25:42;;;;;;;;;13.00;11.33;;;;;-147.14;100.00;58812.66;5000945;28;45655;-62
2022/10/31 15:28:16;;;;;;;;;13.67;13.33;;;;;-147.14;100.00;58812.66;4999103;28;45548;-62
2022/10/31 15:30:53;;;;;;;;;15.67;10.33;;;;;-147.14;100.00;58812.66;5001860;28;45372;-62
2022/10/31 15:33:21;;;;;;;;;17.00;9.67;;;;;-147.14;100.00;58812.66;5001008;28;45309;-62
2022/10/31 15:35:55;;;;;;;;;15.67;14.33;;;;;-147.14;100.00;58812.66;5000820;28;45222;-62
2022/10/31 15:38:21;;;;;;;;;21.67;18.33;;;;;-147.14;100.00;58812.66;5000374;28;46181;-62
2022/10/31 15:40:59;;;;;;;;;17.00;13.33;;;;;-147.14;100.00;58812.66;5000465;28;45412;-63
2022/10/31 15:43:24;;;;;;;;;15.67;13.67;;;;;-147.14;100.00;58812.66;5015717;28;45443;-62
2022/10/31 15:45:50;;;;;;;;;14.00;12.33;;;;;-147.14;100.00;58812.66;5000323;28;45543;-60
2022/10/31 15:48:18;;;;;;;;;14.33;12.67;;;;;-147.14;100.00;58812.66;5015758;28;46304;-60
2022/10/31 15:50:55;;;;;;;;;14.00;14.00;;;;;-147.14;100.00;58812.66;4998964;28;45270;-60
2022/10/31 15:53:24;;;;;;;;;14.67;14.67;;;;;-147.14;100.00;58812.66;4999151;28;45409;-61
2022/10/31 15:56:00;;;;;;;;;15.33;13.00;;;;;-147.14;100.00;58812.66;5010666;28;45578;-61
2022/10/31 15:58:28;;;;;;;;;16.67;15.33;;;;;-147.14;100.00;58812.66;5018599;28;46420;-61
2022/10/31 16:01:01;;;;;;;;;17.00;14.33;;;;;-147.14;100.00;58812.66;5018463;28;45379;-61
2022/10/31 16:03:29;;;;;;;;;15.67;15.33;;;;;-147.14;100.00;58812.66;5018695;28;45449;-61
2022/10/31 16:05:59;;;;;;;;;18.00;15.00;;;;;-147.14;100.00;58812.66;5019183;28;45502;-61
2022/10/31 16:08:28;;;;;;;;;20.00;13.33;;;;;-147.14;100.00;58812.66;4999824;28;46408;-61
2022/10/31 16:10:54;;;;;;;;;18.00;16.33;;;;;-147.14;100.00;58812.66;4999785;28;45557;-61
2022/10/31 16:13:24;;;;;;;;;15.33;13.33;;;;;-147.14;100.00;58812.66;4999043;28;45373;-61
2022/10/31 16:15:52;;;;;;;;;16.00;13.33;;;;;-147.14;100.00;58812.66;5004156;28;45245;-61
2022/10/31 16:18:18;;;;;;;;;16.67;13.33;;;;;-147.14;100.00;58812.66;5008120;28;46326;-61
2022/10/31 16:20:49;;;;;;;;;14.33;12.33;;;;;-147.14;100.00;58812.66;5014733;28;66395;-61
2022/10/31 16:23:17;;;;;;;;;14.33;14.33;;;;;-147.14;100.00;58812.66;5014875;28;45433;-62
2022/10/31 16:25:42;;;;;;;;;17.00;15.00;;;;;-147.14;100.00;58812.66;5014868;28;45518;-61
2022/10/31 16:28:23;;;;;;;;;17.33;14.00;;;;;-147.14;100.00;58812.66;5014865;28;46321;-61
2022/10/31 16:30:51;;;;;;;;;17.67;16.00;;;;;-147.14;100.00;58812.66;4999398;28;45483;-61
2022/10/31 16:33:20;;;;;;;;;12.33;11.33;;;;;-147.14;100.00;58812.66;4998689;28;45395;-61
2022/10/31 16:35:45;;;;;;;;;11.00;10.67;;;;;-147.14;100.00;58812.66;4999354;28;45663;-61
2022/10/31 16:38:11;;;;;;;;;12.33;12.33;;;;;-147.14;100.00;58812.66;4999261;28;53274;-61
2022/10/31 16:40:37;;;;;;;;;15.00;14.00;;;;;-147.14;100.00;58812.66;4998494;28;67163;-61
2022/10/31 16:43:03;;;;;;;;;18.33;12.33;;;;;-147.14;100.00;58812.66;4999547;28;45413;-61
2022/10/31 16:45:31;;;;;;;;;13.67;10.33;;;;;-147.14;100.00;58812.66;5013559;28;68611;-61
2022/10/31 16:48:06;;;;;;;;;14.00;13.67;;;;;-147.14;100.00;58812.66;4999390;28;46414;-61